Time;durP1;ratioP1;P1;durP2;ratioP2;P2;SDS_P1;SDS_P2;PMS_P1;PMS_P2;Temp;Humidity;BMP_temperature;BMP_pressure;BME280_temperature;BME280_humidity;BME280_pressure;Samples;Min_cycle;Max_cycle;Signal;HPM_P1;HPM_P2
2022/05/25 09:46:53;;;;;;;4.68;1.23;;;15.20;45.80;;;;;;5077390;27;20373;-87
2022/05/25 09:49:50;;;;;;;14.13;1.45;;;15.40;47.80;;;;;;5039909;28;20033;-83
2022/05/25 09:52:37;;;;;;;2.63;1.05;;;15.50;48.90;;;;;;5024636;28;20059;-86
2022/05/25 09:55:12;;;;;;;1.98;1.00;;;15.70;49.30;;;;;;5011972;28;20037;-83
2022/05/25 09:57:50;;;;;;;9.68;1.70;;;15.80;49.50;;;;;;5009258;28;20037;-86
2022/05/25 10:00:21;;;;;;;8.68;1.50;;;16.00;50.50;;;;;;5037733;28;20041;-85
2022/05/25 10:02:50;;;;;;;4.45;1.00;;;16.20;49.70;;;;;;5059341;28;20065;-84
2022/05/25 10:05:29;;;;;;;6.93;1.20;;;16.30;48.90;;;;;;5041405;28;20075;-83
2022/05/25 10:08:23;;;;;;;5.22;0.95;;;16.40;47.70;;;;;;5025579;28;20045;-86
2022/05/25 10:10:56;;;;;;;2.17;0.80;;;16.50;46.90;;;;;;5070267;28;20045;-85
2022/05/25 10:13:40;;;;;;;2.10;0.93;;;16.50;46.10;;;;;;5045029;28;20056;-85
2022/05/25 10:16:26;;;;;;;2.28;0.88;;;16.50;45.60;;;;;;5069521;28;20451;-82
2022/05/25 10:18:54;;;;;;;3.42;1.35;;;16.60;45.60;;;;;;5037325;28;20042;-82
2022/05/25 10:21:38;;;;;;;2.67;1.00;;;16.60;45.60;;;;;;5007029;28;20037;-80
2022/05/25 10:24:22;;;;;;;3.42;1.10;;;16.60;44.50;;;;;;5039846;28;20518;-82
2022/05/25 10:26:51;;;;;;;3.13;1.15;;;16.60;43.90;;;;;;5027689;28;20053;-83
2022/05/25 10:38:39;;;;;;;1.85;1.00;;;16.60;45.80;;;;;;5065035;28;21145;-90
2022/05/25 10:44:20;;;;;;;2.67;1.70;;;16.60;45.20;;;;;;5043854;28;20053;-89
2022/05/25 10:46:55;;;;;;;2.05;1.10;;;16.60;44.10;;;;;;5055627;28;20065;-90
2022/05/25 10:49:40;;;;;;;2.43;1.10;;;16.60;43.90;;;;;;5038890;28;20118;-87
2022/05/25 10:52:17;;;;;;;2.42;1.30;;;16.60;43.50;;;;;;5041791;28;20080;-90
2022/05/25 10:54:47;;;;;;;5.07;1.42;;;16.60;43.40;;;;;;5058906;28;20037;-87
2022/05/25 10:57:33;;;;;;;1.10;0.93;;;16.50;43.10;;;;;;5034262;28;20045;-89
2022/05/25 11:00:17;;;;;;;5.78;1.15;;;16.60;43.20;;;;;;5044758;28;20045;-88
2022/05/25 11:03:01;;;;;;;6.40;1.63;;;16.50;42.90;;;;;;5028591;28;20882;-91
2022/05/25 11:05:40;;;;;;;1.13;1.00;;;16.50;42.80;;;;;;5021292;28;20030;-91
2022/05/25 11:08:22;;;;;;;1.02;0.85;;;16.50;42.70;;;;;;5032356;28;20500;-91
2022/05/25 11:10:52;;;;;;;3.05;1.30;;;16.50;42.70;;;;;;5032511;28;20041;-92
2022/05/25 11:13:41;;;;;;;1.85;1.10;;;16.50;42.70;;;;;;5016542;28;20132;-88
2022/05/25 11:16:15;;;;;;;;;;;16.50;42.60;;;;;;5062202;28;20072;-89
2022/05/25 11:19:09;;;;;;;4.95;1.27;;;16.50;42.20;;;;;;5039342;28;20418;-84
2022/05/25 11:22:15;;;;;;;2.67;1.23;;;16.50;42.20;;;;;;5007784;28;20037;-86
2022/05/25 11:25:17;;;;;;;2.63;1.17;;;16.40;41.90;;;;;;5014180;28;20412;-87
2022/05/25 11:28:16;;;;;;;3.50;1.40;;;16.40;42.10;;;;;;5036610;28;20034;-86
2022/05/25 11:31:23;;;;;;;1.95;1.10;;;16.40;41.80;;;;;;5002756;28;20072;-81
2022/05/25 11:34:05;;;;;;;1.98;1.50;;;16.40;42.90;;;;;;5006184;28;20038;-80
2022/05/25 11:36:42;;;;;;;4.70;1.70;;;16.30;42.60;;;;;;5006520;28;20041;-81
2022/05/25 11:39:25;;;;;;;3.33;1.20;;;16.30;42.40;;;;;;4989415;28;20037;-91
2022/05/25 11:42:09;;;;;;;2.05;1.60;;;16.30;42.20;;;;;;5018360;28;20039;-82
2022/05/25 11:44:52;;;;;;;1.88;1.42;;;16.30;42.10;;;;;;5025592;28;20065;-85
2022/05/25 11:47:24;;;;;;;2.08;1.27;;;16.30;44.00;;;;;;5029214;28;20061;-91
2022/05/25 11:49:59;;;;;;;1.98;1.63;;;16.40;44.80;;;;;;5025101;28;20124;-92
2022/05/25 11:52:47;;;;;;;2.65;1.63;;;16.30;44.00;;;;;;5032314;28;20101;-91
2022/05/25 11:55:36;;;;;;;2.70;1.55;;;16.40;43.20;;;;;;5015401;28;20048;-90
2022/05/25 11:58:29;;;;;;;1.98;1.50;;;16.40;42.90;;;;;;5022584;28;20030;-91
2022/05/25 12:01:03;;;;;;;2.35;1.00;;;16.40;41.90;;;;;;5029188;28;20053;-92
2022/05/25 12:04:24;;;;;;;3.95;1.40;;;16.40;42.40;;;;;;4978506;28;20162;-88
2022/05/25 12:06:50;;;;;;;3.30;1.58;;;16.40;41.90;;;;;;4921444;29;20054;-86
2022/05/25 12:09:40;;;;;;;1.35;1.20;;;16.40;42.20;;;;;;4965124;28;20042;-86
2022/05/25 12:12:09;;;;;;;4.45;1.42;;;16.50;42.20;;;;;;4964908;28;20036;-87
2022/05/25 12:14:54;;;;;;;1.70;1.10;;;16.50;42.20;;;;;;4948533;28;20282;-87
2022/05/25 12:17:32;;;;;;;1.83;1.58;;;16.50;41.80;;;;;;4931786;29;20058;-88
2022/05/25 12:20:01;;;;;;;5.35;1.50;;;16.50;41.80;;;;;;4943082;29;20043;-85
2022/05/25 12:22:36;;;;;;;5.47;1.13;;;16.50;42.00;;;;;;4948254;28;20614;-83
2022/05/25 12:25:08;;;;;;;6.65;1.42;;;16.50;43.10;;;;;;4941248;28;20051;-85
2022/05/25 12:27:57;;;;;;;5.93;1.60;;;16.50;45.80;;;;;;4938460;29;20109;-85
2022/05/25 12:30:39;;;;;;;4.60;1.13;;;16.50;47.00;;;;;;4947610;29;20069;-83
2022/05/25 12:33:09;;;;;;;5.80;1.45;;;16.60;48.10;;;;;;4930644;28;20039;-85
2022/05/25 12:35:37;;;;;;;10.02;1.75;;;16.60;48.70;;;;;;4946490;29;20565;-85
2022/05/25 13:07:24;;;;;;;2.55;1.58;;;17.00;45.30;;;;;;5024202;28;20034;-88
2022/05/25 15:01:07;;;;;;;2.13;1.52;;;16.70;43.80;;;;;;5026393;28;20504;-78
2022/05/25 15:03:57;;;;;;;3.00;1.30;;;16.70;43.80;;;;;;5023978;28;20068;-78
2022/05/25 15:06:41;;;;;;;2.33;1.65;;;16.70;43.90;;;;;;5022548;28;20045;-78
2022/05/25 15:09:14;;;;;;;1.50;1.23;;;16.70;43.80;;;;;;5037335;28;20069;-79
2022/05/25 15:11:42;;;;;;;3.35;1.23;;;16.70;43.80;;;;;;5009089;28;20056;-77
2022/05/25 15:20:18;;;;;;;3.15;1.20;;;16.70;44.20;;;;;;5025218;28;20068;-79
2022/05/25 15:22:47;;;;;;;1.50;1.30;;;16.70;45.20;;;;;;5033900;28;20044;-79
2022/05/25 15:25:49;;;;;;;3.80;1.55;;;16.70;47.50;;;;;;5014448;28;20088;-79
2022/05/25 15:28:29;;;;;;;3.47;1.42;;;16.90;48.30;;;;;;5011355;28;20033;-79
2022/05/25 15:30:58;;;;;;;2.38;1.42;;;16.90;46.10;;;;;;5006536;28;20945;-79
2022/05/25 15:33:29;;;;;;;2.97;1.30;;;16.90;44.80;;;;;;5005611;28;20451;-79
2022/05/25 15:36:10;;;;;;;1.58;1.48;;;16.90;44.10;;;;;;5010344;28;20042;-80
2022/05/25 15:38:37;;;;;;;3.67;1.52;;;16.90;43.50;;;;;;5021932;28;20033;-79
2022/05/25 15:41:03;;;;;;;4.28;1.65;;;16.80;43.10;;;;;;5004458;28;20400;-79
2022/05/25 15:43:29;;;;;;;3.08;1.50;;;16.80;42.80;;;;;;5020640;28;20042;-80
2022/05/25 15:46:00;;;;;;;4.53;1.85;;;16.80;42.80;;;;;;5023021;28;20056;-79
2022/05/25 15:48:26;;;;;;;4.15;2.15;;;16.80;42.80;;;;;;5022932;28;20057;-79
2022/05/25 15:50:54;;;;;;;4.57;2.42;;;16.70;43.60;;;;;;5022781;28;20044;-79
2022/05/25 15:53:25;;;;;;;6.20;1.92;;;16.80;45.70;;;;;;5023244;28;20045;-80
2022/05/25 15:55:52;;;;;;;5.35;2.45;;;16.70;45.10;;;;;;4992344;28;20034;-87
2022/05/25 15:58:18;;;;;;;6.20;2.60;;;16.70;44.60;;;;;;5035547;28;20168;-78
2022/05/25 16:00:48;;;;;;;4.43;2.40;;;16.80;44.70;;;;;;5004570;28;20128;-76
2022/05/25 16:03:21;;;;;;;5.55;1.75;;;16.70;44.70;;;;;;5023349;28;20044;-77
2022/05/25 16:05:48;;;;;;;9.30;3.33;;;16.70;45.00;;;;;;5021298;28;20050;-80
2022/05/25 16:11:00;;;;;;;3.07;1.97;;;16.70;45.10;;;;;;5001311;28;20165;-76
2022/05/25 16:13:26;;;;;;;8.32;2.20;;;16.70;44.90;;;;;;5017644;28;20477;-77
2022/05/25 16:15:53;;;;;;;11.57;1.95;;;16.70;44.90;;;;;;5008154;28;20079;-79
2022/05/25 16:18:19;;;;;;;3.45;2.13;;;16.70;45.20;;;;;;5002974;28;20069;-76
2022/05/25 16:20:45;;;;;;;1.95;1.58;;;16.70;45.20;;;;;;5036718;28;20587;-77
2022/05/25 16:23:13;;;;;;;4.25;1.52;;;16.70;45.00;;;;;;5004182;28;20036;-78
2022/05/25 16:25:39;;;;;;;2.08;1.60;;;16.70;45.00;;;;;;5022192;28;21099;-77
2022/05/25 16:28:05;;;;;;;4.20;1.90;;;16.70;44.90;;;;;;5024351;28;20034;-77
2022/05/25 16:30:31;;;;;;;2.90;1.50;;;16.70;45.10;;;;;;5009859;28;20043;-76
2022/05/25 16:32:57;;;;;;;3.65;1.35;;;16.70;45.20;;;;;;5007850;28;20049;-76
2022/05/25 16:35:23;;;;;;;3.00;1.58;;;16.60;45.20;;;;;;5036514;28;20038;-78
2022/05/25 16:37:49;;;;;;;3.05;1.77;;;16.60;45.00;;;;;;5021891;28;20180;-77
2022/05/25 16:40:15;;;;;;;2.65;1.33;;;16.70;44.90;;;;;;5010215;28;20041;-78
2022/05/25 16:42:41;;;;;;;5.07;1.30;;;16.60;45.10;;;;;;5006790;28;20037;-80
2022/05/25 16:45:11;;;;;;;3.10;1.50;;;16.60;45.20;;;;;;5011655;28;20129;-79
2022/05/25 16:47:38;;;;;;;1.75;1.17;;;16.60;45.50;;;;;;5024743;28;20111;-79
2022/05/25 16:50:06;;;;;;;2.00;1.40;;;16.60;45.30;;;;;;5026159;28;20048;-79
2022/05/25 16:52:32;;;;;;;3.60;1.20;;;16.60;45.40;;;;;;5023118;28;20033;-79
2022/05/25 16:54:58;;;;;;;2.17;1.23;;;16.60;45.30;;;;;;5022731;28;20034;-78
2022/05/25 16:57:25;;;;;;;2.90;1.40;;;16.60;45.20;;;;;;5023699;28;20034;-76
2022/05/25 16:59:51;;;;;;;2.83;1.38;;;16.60;45.20;;;;;;5019679;28;20037;-78
2022/05/25 17:02:17;;;;;;;4.07;1.45;;;16.60;45.40;;;;;;5038303;28;20033;-78
2022/05/25 17:04:44;;;;;;;1.75;1.42;;;16.60;45.40;;;;;;5003521;28;20123;-79
2022/05/25 17:07:10;;;;;;;2.95;1.15;;;16.60;45.50;;;;;;5021915;28;20029;-79
2022/05/25 17:09:36;;;;;;;3.72;1.40;;;16.60;45.50;;;;;;4993847;28;20038;-79
2022/05/25 17:12:02;;;;;;;4.63;1.38;;;16.60;45.90;;;;;;5005130;28;20080;-78
2022/05/25 17:14:28;;;;;;;6.25;1.50;;;16.60;46.00;;;;;;5020326;28;20069;-79
2022/05/25 17:16:54;;;;;;;2.33;1.23;;;16.50;46.00;;;;;;5009321;28;20060;-78
2022/05/25 17:22:06;;;;;;;5.63;1.63;;;16.50;46.80;;;;;;5002816;28;20029;-81
2022/05/25 17:24:32;;;;;;;5.63;1.30;;;16.50;47.30;;;;;;5019604;28;20599;-81
2022/05/25 17:26:59;;;;;;;8.35;2.03;;;16.40;47.80;;;;;;5021947;28;20034;-83
2022/05/25 17:29:25;;;;;;;8.63;1.52;;;16.40;48.50;;;;;;4992179;28;20026;-79
2022/05/25 17:31:51;;;;;;;2.95;1.77;;;16.40;49.10;;;;;;5037539;28;20087;-79
2022/05/25 17:34:18;;;;;;;2.13;1.58;;;16.40;49.30;;;;;;5019790;28;20042;-83
2022/05/25 17:42:15;;;;;;;2.45;1.67;;;16.40;50.20;;;;;;5002410;28;20512;-79
2022/05/25 17:44:41;;;;;;;5.00;1.50;;;16.40;49.80;;;;;;5001631;28;20033;-78
2022/05/25 17:47:07;;;;;;;7.00;1.55;;;16.40;49.50;;;;;;5002962;28;20045;-79
2022/05/25 17:49:36;;;;;;;1.17;1.10;;;16.40;49.30;;;;;;5020663;28;20057;-79
2022/05/25 17:52:03;;;;;;;5.28;1.35;;;16.40;49.20;;;;;;5019934;28;20025;-78
2022/05/25 17:54:30;;;;;;;3.97;1.10;;;16.40;49.10;;;;;;5021494;28;20072;-80
2022/05/25 17:56:56;;;;;;;2.97;1.15;;;16.30;49.00;;;;;;5019471;28;20048;-82
2022/05/25 17:59:25;;;;;;;2.42;0.93;;;16.30;49.00;;;;;;5003210;28;20041;-83
2022/05/25 18:01:51;;;;;;;2.42;1.25;;;16.30;49.00;;;;;;5006582;28;20054;-80
2022/05/25 18:04:18;;;;;;;2.88;1.13;;;16.30;49.10;;;;;;5021039;28;20550;-79
2022/05/25 18:06:47;;;;;;;1.38;0.90;;;16.30;49.10;;;;;;5020502;28;20056;-78
2022/05/25 18:09:14;;;;;;;3.30;1.27;;;16.30;49.10;;;;;;5023933;28;20041;-79
2022/05/25 18:11:43;;;;;;;2.55;1.10;;;16.30;49.20;;;;;;4993128;28;20115;-78
2022/05/25 18:14:15;;;;;;;3.38;0.93;;;16.30;49.20;;;;;;5010417;28;20036;-77
2022/05/25 18:16:43;;;;;;;2.53;1.40;;;16.30;49.20;;;;;;5057225;22;20054;-84
2022/05/25 18:19:12;;;;;;;1.15;1.05;;;16.30;49.40;;;;;;5017963;28;20169;-83
2022/05/25 18:21:39;;;;;;;1.92;1.00;;;16.20;49.40;;;;;;5023400;28;20045;-84
2022/05/25 18:24:05;;;;;;;2.33;1.25;;;16.20;49.40;;;;;;5007424;28;20064;-84
2022/05/25 18:26:31;;;;;;;1.90;1.15;;;16.20;49.60;;;;;;5019602;28;20543;-81
2022/05/25 18:28:57;;;;;;;2.60;1.40;;;16.20;49.60;;;;;;5003690;28;20120;-82
2022/05/25 18:31:23;;;;;;;3.78;1.23;;;16.20;49.70;;;;;;5002903;28;20076;-83
2022/05/25 18:33:49;;;;;;;3.20;1.35;;;16.20;49.80;;;;;;5003798;28;20034;-81
2022/05/25 18:36:32;;;;;;;3.08;1.25;;;16.10;49.80;;;;;;5004387;28;20484;-86
2022/05/25 18:38:59;;;;;;;4.85;1.38;;;16.10;49.80;;;;;;5001996;28;20304;-82
2022/05/25 18:41:26;;;;;;;6.97;1.35;;;16.10;49.80;;;;;;5006171;28;20037;-88
2022/05/25 18:44:07;;;;;;;4.68;1.50;;;16.10;49.90;;;;;;5094675;27;20468;-86
2022/05/25 18:46:33;;;;;;;2.78;1.20;;;16.10;52.20;;;;;;5042866;28;20029;-87
2022/05/25 18:49:00;;;;;;;2.97;1.00;;;16.10;55.00;;;;;;5053062;28;20511;-83
2022/05/25 18:51:26;;;;;;;4.15;1.40;;;16.10;54.30;;;;;;5060570;28;20116;-86
2022/05/25 18:53:52;;;;;;;5.05;1.75;;;16.20;53.20;;;;;;5061437;28;20044;-85
2022/05/25 18:56:18;;;;;;;2.50;1.10;;;16.20;52.40;;;;;;5056378;28;20536;-87
2022/05/25 18:58:44;;;;;;;3.10;0.90;;;16.20;51.70;;;;;;5043212;28;20035;-88
2022/05/25 19:01:12;;;;;;;2.63;1.08;;;16.20;51.30;;;;;;5060392;28;20039;-84
2022/05/25 19:03:38;;;;;;;2.55;0.95;;;16.10;51.00;;;;;;5054747;28;20052;-86
2022/05/25 19:06:04;;;;;;;3.63;1.35;;;16.10;50.80;;;;;;5056686;28;20132;-86
2022/05/25 19:08:30;;;;;;;1.58;1.25;;;16.10;50.80;;;;;;5058238;28;20090;-86
2022/05/25 19:10:57;;;;;;;2.40;1.17;;;16.10;50.70;;;;;;5028412;28;20030;-84
2022/05/25 19:13:24;;;;;;;2.92;1.45;;;16.00;50.70;;;;;;5058032;28;20055;-84
2022/05/25 19:15:50;;;;;;;2.10;1.40;;;16.00;50.70;;;;;;5055282;28;20033;-84
2022/05/25 19:18:16;;;;;;;1.95;1.20;;;16.00;50.70;;;;;;5061191;28;20029;-84
2022/05/25 19:20:42;;;;;;;1.67;1.25;;;16.00;50.90;;;;;;5057445;28;20395;-84
2022/05/25 19:23:17;;;;;;;2.53;1.00;;;15.90;50.70;;;;;;5055514;28;20047;-85
2022/05/25 19:25:47;;;;;;;1.98;1.13;;;15.90;50.80;;;;;;5023022;28;20033;-84
2022/05/25 19:28:13;;;;;;;1.40;1.17;;;15.90;50.70;;;;;;5054705;28;20037;-86
2022/05/25 19:30:40;;;;;;;1.45;1.00;;;15.90;50.80;;;;;;5060288;28;20039;-86
2022/05/25 19:33:06;;;;;;;1.40;1.27;;;15.80;50.90;;;;;;5043316;28;20052;-82
2022/05/25 19:35:34;;;;;;;7.60;1.15;;;15.80;51.00;;;;;;5057780;28;20032;-87
2022/05/25 19:38:04;;;;;;;3.78;1.20;;;15.80;50.90;;;;;;5054252;28;20469;-87
2022/05/25 19:40:31;;;;;;;1.67;1.17;;;15.80;51.00;;;;;;5055350;28;20025;-88
2022/05/25 19:43:00;;;;;;;1.83;1.20;;;15.80;51.10;;;;;;5069438;28;20102;-86
2022/05/25 19:45:29;;;;;;;1.75;1.20;;;15.80;51.10;;;;;;5054975;28;20038;-87
2022/05/25 19:47:57;;;;;;;2.72;1.00;;;15.70;51.10;;;;;;5056370;28;20041;-88
2022/05/25 19:53:09;;;;;;;1.73;1.10;;;15.70;51.10;;;;;;5054997;28;20049;-85
2022/05/25 19:55:35;;;;;;;4.18;1.10;;;15.70;51.30;;;;;;5024757;28;20037;-86
2022/05/25 19:58:01;;;;;;;0.82;0.82;;;15.70;51.40;;;;;;5042394;28;20086;-87
2022/05/25 20:00:27;;;;;;;1.52;1.17;;;15.70;51.40;;;;;;5041138;28;20037;-87
2022/05/25 20:02:54;;;;;;;2.08;1.10;;;15.60;51.40;;;;;;5030575;28;20051;-86
2022/05/25 20:05:20;;;;;;;1.23;0.70;;;15.70;51.50;;;;;;5042056;28;20040;-84
2022/05/25 20:07:47;;;;;;;1.58;1.02;;;15.60;51.40;;;;;;5040824;28;20042;-87
2022/05/25 20:10:15;;;;;;;2.58;1.15;;;15.60;51.60;;;;;;5046026;28;20566;-86
2022/05/25 20:12:41;;;;;;;3.22;1.30;;;15.60;51.70;;;;;;5042241;28;20064;-86
2022/05/25 20:15:08;;;;;;;2.30;1.42;;;15.60;51.70;;;;;;5044421;28;20065;-85
2022/05/25 20:17:35;;;;;;;3.33;1.58;;;15.60;51.70;;;;;;5051376;28;20029;-86
2022/05/25 20:20:01;;;;;;;1.55;1.45;;;15.60;51.80;;;;;;5025247;28;20021;-86
2022/05/25 20:22:29;;;;;;;1.70;1.58;;;15.60;51.90;;;;;;5046465;28;20398;-86
2022/05/25 20:24:59;;;;;;;4.13;1.77;;;15.60;52.00;;;;;;5040836;28;20106;-87
2022/05/25 20:27:27;;;;;;;2.30;1.55;;;15.60;52.10;;;;;;5044372;28;20029;-86
2022/05/25 20:29:54;;;;;;;3.88;1.55;;;15.60;52.10;;;;;;5043074;28;20064;-88
2022/05/25 20:32:20;;;;;;;2.65;1.63;;;15.60;52.30;;;;;;5044965;28;20040;-89
2022/05/25 20:34:46;;;;;;;4.88;1.73;;;15.60;52.30;;;;;;5046288;28;20037;-87
2022/05/25 20:37:14;;;;;;;3.45;1.65;;;15.50;52.40;;;;;;5030045;28;20090;-87
2022/05/25 20:39:41;;;;;;;1.92;1.48;;;15.50;52.50;;;;;;5013764;28;20110;-88
2022/05/25 20:42:07;;;;;;;4.50;1.80;;;15.40;52.70;;;;;;5045946;28;20037;-88
2022/05/25 20:44:35;;;;;;;2.17;1.75;;;15.50;52.90;;;;;;5041000;28;20474;-82
2022/05/25 20:47:01;;;;;;;3.58;1.60;;;15.50;53.00;;;;;;5041105;28;20040;-81
2022/05/25 20:49:27;;;;;;;3.00;1.83;;;15.50;53.10;;;;;;5044003;28;20040;-81
2022/05/25 20:51:53;;;;;;;3.20;2.47;;;15.50;53.20;;;;;;5042372;28;20033;-82
2022/05/25 20:54:20;;;;;;;2.22;1.92;;;15.50;53.30;;;;;;5040913;28;20057;-83
2022/05/25 20:56:45;;;;;;;3.28;1.90;;;15.50;53.40;;;;;;5042126;28;20021;-83
2022/05/25 20:59:14;;;;;;;3.80;2.05;;;15.40;53.40;;;;;;5041759;28;20029;-82
2022/05/25 21:01:40;;;;;;;2.72;1.73;;;15.40;53.40;;;;;;5040460;28;20036;-82
2022/05/25 21:04:06;;;;;;;3.55;1.98;;;15.40;53.50;;;;;;5040979;28;20579;-81
2022/05/25 21:06:32;;;;;;;3.45;1.70;;;15.40;53.60;;;;;;5041580;28;20162;-82
2022/05/25 21:08:58;;;;;;;3.13;1.65;;;15.40;53.50;;;;;;5045691;28;20504;-82
2022/05/25 21:11:25;;;;;;;2.95;1.63;;;15.40;53.50;;;;;;5039884;28;20059;-82
2022/05/25 21:13:54;;;;;;;4.28;1.75;;;15.40;53.50;;;;;;5040111;28;20041;-82
2022/05/25 21:16:20;;;;;;;2.88;1.50;;;15.40;53.50;;;;;;5042297;28;20038;-81
2022/05/25 21:18:46;;;;;;;4.65;1.55;;;15.30;53.60;;;;;;5044184;28;20570;-80
2022/05/25 21:21:12;;;;;;;1.30;1.20;;;15.30;53.50;;;;;;5042478;28;20037;-81
2022/05/25 21:23:38;;;;;;;1.25;0.98;;;15.30;53.40;;;;;;5039999;28;20073;-79
2022/05/25 21:26:04;;;;;;;1.50;1.35;;;15.30;53.40;;;;;;5044176;28;20071;-81
2022/05/25 21:28:30;;;;;;;1.75;1.35;;;15.30;53.30;;;;;;5044521;28;20067;-81
2022/05/25 21:33:44;;;;;;;2.08;1.40;;;15.30;53.40;;;;;;5041496;28;20064;-81
2022/05/25 21:36:12;;;;;;;2.25;1.10;;;15.30;53.30;;;;;;5038682;28;20488;-81
2022/05/25 21:38:39;;;;;;;1.20;1.10;;;15.30;53.30;;;;;;5040637;28;20043;-81
2022/05/25 21:41:05;;;;;;;1.92;1.67;;;15.20;53.40;;;;;;5041818;28;20464;-81
2022/05/25 21:43:32;;;;;;;2.72;1.27;;;15.20;53.50;;;;;;5040433;28;20045;-80
2022/05/25 21:51:27;;;;;;;2.65;1.38;;;15.20;53.90;;;;;;5041036;28;20030;-82
2022/05/25 21:53:53;;;;;;;4.75;1.15;;;15.20;54.10;;;;;;5040946;28;20110;-79
2022/05/25 21:56:19;;;;;;;7.53;1.42;;;15.20;54.20;;;;;;5044365;28;20116;-81
2022/05/25 21:58:45;;;;;;;1.45;1.10;;;15.20;54.20;;;;;;5042305;28;20036;-81
2022/05/25 22:01:11;;;;;;;1.58;1.20;;;15.10;54.20;;;;;;5043820;28;20029;-81
2022/05/25 22:03:37;;;;;;;2.88;1.35;;;15.10;54.40;;;;;;5043458;28;20052;-80
2022/05/25 22:06:03;;;;;;;2.78;1.50;;;15.10;54.60;;;;;;5040782;28;20063;-81
2022/05/25 22:08:29;;;;;;;1.67;1.23;;;15.10;54.70;;;;;;5040511;28;20044;-82
2022/05/25 22:10:55;;;;;;;3.40;1.50;;;15.10;54.90;;;;;;5038357;28;20032;-80
2022/05/25 22:13:22;;;;;;;1.75;1.20;;;15.10;55.20;;;;;;5020995;28;20040;-81
2022/05/25 22:15:48;;;;;;;2.13;1.33;;;15.10;55.40;;;;;;5041581;28;20431;-82
2022/05/25 22:18:14;;;;;;;1.63;1.50;;;15.10;55.60;;;;;;5022028;28;20032;-82
2022/05/25 22:20:40;;;;;;;2.08;1.50;;;15.10;55.80;;;;;;5038905;28;20029;-82
2022/05/25 22:23:07;;;;;;;2.03;1.27;;;15.10;56.00;;;;;;5040842;28;20399;-82
2022/05/25 22:25:34;;;;;;;2.58;1.40;;;15.10;56.10;;;;;;5039194;28;20124;-81
2022/05/25 22:28:00;;;;;;;3.25;1.38;;;15.00;56.20;;;;;;5039635;28;20045;-81
2022/05/25 22:30:26;;;;;;;3.67;1.50;;;15.00;56.30;;;;;;5042583;28;20026;-81
2022/05/25 22:32:52;;;;;;;1.85;1.38;;;15.00;56.50;;;;;;5043688;28;20131;-80
2022/05/25 22:35:18;;;;;;;4.35;1.65;;;15.00;56.50;;;;;;5040373;28;20037;-81
2022/05/25 22:37:44;;;;;;;2.45;1.30;;;15.00;56.60;;;;;;5040438;28;20032;-82
2022/05/25 22:40:13;;;;;;;2.33;1.17;;;15.00;56.60;;;;;;5024195;28;20095;-82
2022/05/25 22:42:39;;;;;;;2.30;1.45;;;14.90;56.50;;;;;;5043150;28;20053;-82
2022/05/25 22:45:05;;;;;;;3.08;1.42;;;14.90;56.60;;;;;;5040533;28;20083;-82
2022/05/25 22:47:31;;;;;;;2.97;1.48;;;15.00;56.60;;;;;;5027894;28;20398;-82
2022/05/25 22:49:57;;;;;;;2.60;1.73;;;14.90;56.60;;;;;;5041505;28;20029;-82
2022/05/25 22:52:23;;;;;;;1.90;1.25;;;14.90;56.60;;;;;;5010606;28;20043;-82
2022/05/25 22:54:49;;;;;;;3.75;1.65;;;14.90;56.50;;;;;;5043483;28;20044;-82
2022/05/25 22:57:19;;;;;;;2.15;1.40;;;14.90;56.50;;;;;;5040375;28;20136;-82
2022/05/25 22:59:46;;;;;;;4.43;1.88;;;14.90;56.50;;;;;;5043789;28;20403;-82
2022/05/25 23:02:12;;;;;;;5.25;1.60;;;14.90;56.50;;;;;;5042936;28;20067;-82
2022/05/25 23:04:41;;;;;;;4.00;1.60;;;14.90;56.50;;;;;;5038604;28;20048;-82
2022/05/25 23:07:08;;;;;;;3.25;1.60;;;14.80;56.70;;;;;;5027505;28;20029;-81
2022/05/25 23:09:34;;;;;;;3.22;1.77;;;14.80;56.80;;;;;;5040438;28;20057;-82
2022/05/25 23:12:02;;;;;;;2.53;1.60;;;14.80;56.80;;;;;;5043992;28;20037;-81
2022/05/25 23:14:28;;;;;;;4.82;1.80;;;14.80;56.90;;;;;;5041344;28;20041;-82
2022/05/25 23:16:54;;;;;;;2.25;1.52;;;14.80;56.90;;;;;;5039848;28;20041;-81
2022/05/25 23:19:20;;;;;;;2.22;1.60;;;14.80;57.00;;;;;;5039555;28;20040;-81
2022/05/25 23:21:46;;;;;;;1.90;1.60;;;14.70;57.10;;;;;;5039670;28;20033;-82
2022/05/25 23:26:56;;;;;;;2.17;1.60;;;14.70;57.00;;;;;;5039233;28;20033;-80
2022/05/25 23:29:22;;;;;;;2.10;1.90;;;14.60;57.00;;;;;;5044797;28;20028;-79
2022/05/25 23:31:48;;;;;;;3.92;1.70;;;14.60;57.00;;;;;;5043101;28;20061;-82
2022/05/25 23:34:14;;;;;;;2.40;1.77;;;14.60;57.10;;;;;;5044788;28;20107;-79
2022/05/25 23:36:41;;;;;;;2.00;1.80;;;14.60;57.00;;;;;;5042119;28;20025;-80
2022/05/25 23:39:09;;;;;;;4.78;1.70;;;14.60;57.10;;;;;;5043945;28;20040;-79
2022/05/25 23:44:20;;;;;;;3.60;1.45;;;14.60;57.00;;;;;;5044391;28;20041;-80
2022/05/25 23:46:46;;;;;;;4.20;1.70;;;14.60;57.20;;;;;;5043289;28;20030;-80
2022/05/25 23:49:12;;;;;;;2.70;1.73;;;14.60;57.30;;;;;;5046462;28;20032;-82
2022/05/25 23:51:40;;;;;;;2.13;1.60;;;14.50;57.40;;;;;;5042779;28;21663;-81
2022/05/25 23:54:06;;;;;;;4.15;1.73;;;14.60;57.70;;;;;;5043091;28;20038;-80
2022/05/25 23:56:33;;;;;;;2.13;1.60;;;14.50;57.70;;;;;;5042510;28;20059;-81
2022/05/25 23:58:59;;;;;;;5.07;1.92;;;14.60;57.80;;;;;;5046521;28;20045;-80
